sensor_id;sensor_type;location;lat;lon;timestamp;P1;durP1;ratioP1;P2;durP2;ratioP2
26686;SDS011;14298;50.900;4.648;2023-03-08T00:01:31;11.77;;;10.97;;
26686;SDS011;14298;50.900;4.648;2023-03-08T00:03:59;12.07;;;10.87;;
26686;SDS011;14298;50.900;4.648;2023-03-08T00:06:28;13.10;;;11.97;;
26686;SDS011;14298;50.900;4.648;2023-03-08T00:08:56;9.83;;;9.23;;
26686;SDS011;14298;50.900;4.648;2023-03-08T00:11:26;14.20;;;13.13;;
26686;SDS011;14298;50.900;4.648;2023-03-08T00:13:55;9.13;;;8.30;;
26686;SDS011;14298;50.900;4.648;2023-03-08T00:16:24;12.00;;;10.90;;
26686;SDS011;14298;50.900;4.648;2023-03-08T00:18:52;10.50;;;9.80;;
26686;SDS011;14298;50.900;4.648;2023-03-08T00:21:21;10.27;;;9.60;;
26686;SDS011;14298;50.900;4.648;2023-03-08T00:23:52;9.13;;;8.43;;
26686;SDS011;14298;50.900;4.648;2023-03-08T00:26:21;10.73;;;9.97;;
26686;SDS011;14298;50.900;4.648;2023-03-08T00:28:49;9.93;;;9.33;;
26686;SDS011;14298;50.900;4.648;2023-03-08T00:31:18;10.13;;;9.40;;
26686;SDS011;14298;50.900;4.648;2023-03-08T00:33:48;10.00;;;9.20;;
26686;SDS011;14298;50.900;4.648;2023-03-08T00:36:20;13.67;;;12.33;;
26686;SDS011;14298;50.900;4.648;2023-03-08T00:38:49;10.17;;;9.47;;
26686;SDS011;14298;50.900;4.648;2023-03-08T00:41:18;8.47;;;7.97;;
26686;SDS011;14298;50.900;4.648;2023-03-08T00:43:47;9.07;;;8.37;;
26686;SDS011;14298;50.900;4.648;2023-03-08T00:46:15;9.73;;;8.83;;
26686;SDS011;14298;50.900;4.648;2023-03-08T00:48:44;10.90;;;10.10;;
26686;SDS011;14298;50.900;4.648;2023-03-08T00:51:15;9.33;;;8.63;;
26686;SDS011;14298;50.900;4.648;2023-03-08T00:53:45;10.53;;;9.73;;
26686;SDS011;14298;50.900;4.648;2023-03-08T00:56:14;10.37;;;9.67;;
26686;SDS011;14298;50.900;4.648;2023-03-08T00:58:43;10.63;;;9.43;;
26686;SDS011;14298;50.900;4.648;2023-03-08T01:01:13;9.63;;;9.03;;
26686;SDS011;14298;50.900;4.648;2023-03-08T01:03:45;9.50;;;8.70;;
26686;SDS011;14298;50.900;4.648;2023-03-08T01:06:13;9.37;;;8.70;;
26686;SDS011;14298;50.900;4.648;2023-03-08T01:08:43;8.67;;;8.03;;
26686;SDS011;14298;50.900;4.648;2023-03-08T01:11:15;9.50;;;8.80;;
26686;SDS011;14298;50.900;4.648;2023-03-08T01:13:46;8.40;;;7.60;;
26686;SDS011;14298;50.900;4.648;2023-03-08T01:16:15;7.80;;;7.30;;
26686;SDS011;14298;50.900;4.648;2023-03-08T01:18:46;8.83;;;8.23;;
26686;SDS011;14298;50.900;4.648;2023-03-08T01:21:15;8.30;;;7.70;;
26686;SDS011;14298;50.900;4.648;2023-03-08T01:23:43;8.33;;;7.73;;
26686;SDS011;14298;50.900;4.648;2023-03-08T01:26:14;8.00;;;7.13;;
26686;SDS011;14298;50.900;4.648;2023-03-08T01:28:44;7.50;;;7.03;;
26686;SDS011;14298;50.900;4.648;2023-03-08T01:34:00;7.90;;;7.33;;
26686;SDS011;14298;50.900;4.648;2023-03-08T01:36:29;7.53;;;6.90;;
26686;SDS011;14298;50.900;4.648;2023-03-08T01:38:58;7.53;;;7.07;;
26686;SDS011;14298;50.900;4.648;2023-03-08T01:41:28;6.97;;;6.57;;
26686;SDS011;14298;50.900;4.648;2023-03-08T01:43:57;8.00;;;7.50;;
26686;SDS011;14298;50.900;4.648;2023-03-08T01:46:33;6.80;;;6.33;;
26686;SDS011;14298;50.900;4.648;2023-03-08T01:54:48;7.37;;;6.80;;
26686;SDS011;14298;50.900;4.648;2023-03-08T01:57:23;7.97;;;7.37;;
26686;SDS011;14298;50.900;4.648;2023-03-08T01:59:52;6.93;;;6.33;;
26686;SDS011;14298;50.900;4.648;2023-03-08T02:02:25;5.47;;;5.17;;
26686;SDS011;14298;50.900;4.648;2023-03-08T02:07:43;6.77;;;6.27;;
26686;SDS011;14298;50.900;4.648;2023-03-08T02:10:12;7.57;;;6.87;;
26686;SDS011;14298;50.900;4.648;2023-03-08T02:12:41;6.83;;;6.13;;
26686;SDS011;14298;50.900;4.648;2023-03-08T02:15:11;6.40;;;5.90;;
26686;SDS011;14298;50.900;4.648;2023-03-08T02:17:41;5.10;;;4.80;;
26686;SDS011;14298;50.900;4.648;2023-03-08T02:22:45;5.60;;;5.20;;
26686;SDS011;14298;50.900;4.648;2023-03-08T02:25:16;6.63;;;6.07;;
26686;SDS011;14298;50.900;4.648;2023-03-08T02:30:36;5.67;;;5.13;;
26686;SDS011;14298;50.900;4.648;2023-03-08T02:33:05;4.80;;;4.50;;
26686;SDS011;14298;50.900;4.648;2023-03-08T02:35:34;5.87;;;5.30;;
26686;SDS011;14298;50.900;4.648;2023-03-08T02:38:04;4.47;;;4.17;;
26686;SDS011;14298;50.900;4.648;2023-03-08T02:40:32;4.93;;;4.17;;
26686;SDS011;14298;50.900;4.648;2023-03-08T02:43:00;4.07;;;3.77;;
26686;SDS011;14298;50.900;4.648;2023-03-08T02:45:29;5.37;;;5.00;;
26686;SDS011;14298;50.900;4.648;2023-03-08T02:48:00;4.47;;;4.17;;
26686;SDS011;14298;50.900;4.648;2023-03-08T02:50:29;4.57;;;4.27;;
26686;SDS011;14298;50.900;4.648;2023-03-08T02:52:58;3.13;;;2.67;;
26686;SDS011;14298;50.900;4.648;2023-03-08T02:55:26;3.83;;;3.53;;
26686;SDS011;14298;50.900;4.648;2023-03-08T02:57:54;3.43;;;3.23;;
26686;SDS011;14298;50.900;4.648;2023-03-08T03:00:23;3.40;;;3.13;;
26686;SDS011;14298;50.900;4.648;2023-03-08T03:02:51;2.67;;;2.57;;
26686;SDS011;14298;50.900;4.648;2023-03-08T03:05:19;2.80;;;2.60;;
26686;SDS011;14298;50.900;4.648;2023-03-08T03:07:48;2.97;;;2.87;;
26686;SDS011;14298;50.900;4.648;2023-03-08T03:10:16;4.23;;;4.03;;
26686;SDS011;14298;50.900;4.648;2023-03-08T03:12:45;3.53;;;3.33;;
26686;SDS011;14298;50.900;4.648;2023-03-08T03:15:13;2.83;;;2.73;;
26686;SDS011;14298;50.900;4.648;2023-03-08T03:17:41;5.03;;;4.60;;
26686;SDS011;14298;50.900;4.648;2023-03-08T03:20:10;3.70;;;3.50;;
26686;SDS011;14298;50.900;4.648;2023-03-08T03:22:39;3.20;;;3.00;;
26686;SDS011;14298;50.900;4.648;2023-03-08T03:25:07;3.27;;;3.10;;
26686;SDS011;14298;50.900;4.648;2023-03-08T03:27:36;3.50;;;3.30;;
26686;SDS011;14298;50.900;4.648;2023-03-08T03:30:05;4.37;;;4.07;;
26686;SDS011;14298;50.900;4.648;2023-03-08T03:32:34;3.97;;;3.70;;
26686;SDS011;14298;50.900;4.648;2023-03-08T03:35:02;4.67;;;4.23;;
26686;SDS011;14298;50.900;4.648;2023-03-08T03:37:32;3.07;;;2.97;;
26686;SDS011;14298;50.900;4.648;2023-03-08T03:40:03;4.80;;;4.50;;
26686;SDS011;14298;50.900;4.648;2023-03-08T03:42:32;3.50;;;3.20;;
26686;SDS011;14298;50.900;4.648;2023-03-08T03:45:00;3.73;;;3.43;;
26686;SDS011;14298;50.900;4.648;2023-03-08T03:47:28;5.30;;;4.17;;
26686;SDS011;14298;50.900;4.648;2023-03-08T03:49:57;3.50;;;3.30;;
26686;SDS011;14298;50.900;4.648;2023-03-08T03:52:25;5.57;;;3.17;;
26686;SDS011;14298;50.900;4.648;2023-03-08T03:54:53;7.23;;;4.30;;
26686;SDS011;14298;50.900;4.648;2023-03-08T03:57:21;6.00;;;5.40;;
26686;SDS011;14298;50.900;4.648;2023-03-08T03:59:50;10.13;;;4.93;;
26686;SDS011;14298;50.900;4.648;2023-03-08T04:02:18;5.17;;;4.87;;
26686;SDS011;14298;50.900;4.648;2023-03-08T04:04:49;4.73;;;4.43;;
26686;SDS011;14298;50.900;4.648;2023-03-08T04:07:18;5.80;;;5.27;;
26686;SDS011;14298;50.900;4.648;2023-03-08T04:09:46;5.40;;;4.90;;
26686;SDS011;14298;50.900;4.648;2023-03-08T04:12:14;6.00;;;5.53;;
26686;SDS011;14298;50.900;4.648;2023-03-08T04:14:42;5.30;;;4.87;;
26686;SDS011;14298;50.900;4.648;2023-03-08T04:17:11;5.53;;;5.23;;
26686;SDS011;14298;50.900;4.648;2023-03-08T04:19:39;4.37;;;4.17;;
26686;SDS011;14298;50.900;4.648;2023-03-08T04:22:08;5.23;;;3.73;;
26686;SDS011;14298;50.900;4.648;2023-03-08T04:24:36;3.97;;;3.77;;
26686;SDS011;14298;50.900;4.648;2023-03-08T04:27:04;4.60;;;4.30;;
26686;SDS011;14298;50.900;4.648;2023-03-08T04:29:32;2.97;;;2.80;;
26686;SDS011;14298;50.900;4.648;2023-03-08T04:32:01;2.47;;;2.33;;
26686;SDS011;14298;50.900;4.648;2023-03-08T04:34:29;2.50;;;2.40;;
26686;SDS011;14298;50.900;4.648;2023-03-08T04:36:58;2.37;;;2.20;;
26686;SDS011;14298;50.900;4.648;2023-03-08T04:39:26;2.37;;;2.27;;
26686;SDS011;14298;50.900;4.648;2023-03-08T04:41:54;2.20;;;2.00;;
26686;SDS011;14298;50.900;4.648;2023-03-08T04:44:23;2.73;;;2.63;;
26686;SDS011;14298;50.900;4.648;2023-03-08T04:46:51;3.93;;;2.90;;
26686;SDS011;14298;50.900;4.648;2023-03-08T04:49:20;2.43;;;2.23;;
26686;SDS011;14298;50.900;4.648;2023-03-08T04:51:49;2.13;;;2.03;;
26686;SDS011;14298;50.900;4.648;2023-03-08T04:54:18;1.90;;;1.87;;
26686;SDS011;14298;50.900;4.648;2023-03-08T04:56:46;2.03;;;1.93;;
26686;SDS011;14298;50.900;4.648;2023-03-08T04:59:14;1.50;;;1.50;;
26686;SDS011;14298;50.900;4.648;2023-03-08T05:01:43;3.20;;;3.00;;
26686;SDS011;14298;50.900;4.648;2023-03-08T05:04:11;2.13;;;2.03;;
26686;SDS011;14298;50.900;4.648;2023-03-08T05:06:40;1.83;;;1.73;;
26686;SDS011;14298;50.900;4.648;2023-03-08T05:09:08;2.40;;;2.20;;
26686;SDS011;14298;50.900;4.648;2023-03-08T05:11:36;1.77;;;1.70;;
26686;SDS011;14298;50.900;4.648;2023-03-08T05:14:04;2.33;;;2.23;;
26686;SDS011;14298;50.900;4.648;2023-03-08T05:16:33;2.30;;;2.20;;
26686;SDS011;14298;50.900;4.648;2023-03-08T05:19:02;2.17;;;2.03;;
26686;SDS011;14298;50.900;4.648;2023-03-08T05:21:30;1.93;;;1.83;;
26686;SDS011;14298;50.900;4.648;2023-03-08T05:23:59;2.47;;;2.37;;
26686;SDS011;14298;50.900;4.648;2023-03-08T05:26:27;2.13;;;2.03;;
26686;SDS011;14298;50.900;4.648;2023-03-08T05:28:55;1.63;;;1.57;;
26686;SDS011;14298;50.900;4.648;2023-03-08T05:31:25;2.40;;;2.30;;
26686;SDS011;14298;50.900;4.648;2023-03-08T05:33:54;2.70;;;2.50;;
26686;SDS011;14298;50.900;4.648;2023-03-08T05:36:22;2.33;;;1.87;;
26686;SDS011;14298;50.900;4.648;2023-03-08T05:38:52;2.80;;;2.60;;
26686;SDS011;14298;50.900;4.648;2023-03-08T05:41:21;2.20;;;2.10;;
26686;SDS011;14298;50.900;4.648;2023-03-08T05:43:49;1.37;;;1.37;;
26686;SDS011;14298;50.900;4.648;2023-03-08T05:46:18;2.87;;;2.67;;
26686;SDS011;14298;50.900;4.648;2023-03-08T05:48:46;2.40;;;2.30;;
26686;SDS011;14298;50.900;4.648;2023-03-08T05:51:15;2.73;;;2.63;;
26686;SDS011;14298;50.900;4.648;2023-03-08T05:53:44;2.37;;;2.17;;
26686;SDS011;14298;50.900;4.648;2023-03-08T05:56:14;4.97;;;3.43;;
26686;SDS011;14298;50.900;4.648;2023-03-08T05:58:44;4.37;;;2.97;;
26686;SDS011;14298;50.900;4.648;2023-03-08T06:01:14;2.83;;;2.63;;
26686;SDS011;14298;50.900;4.648;2023-03-08T06:03:47;2.20;;;2.10;;
26686;SDS011;14298;50.900;4.648;2023-03-08T06:06:18;3.00;;;2.77;;
26686;SDS011;14298;50.900;4.648;2023-03-08T06:08:47;3.33;;;3.13;;
26686;SDS011;14298;50.900;4.648;2023-03-08T06:11:17;1.77;;;1.77;;
26686;SDS011;14298;50.900;4.648;2023-03-08T06:13:46;4.10;;;3.80;;
26686;SDS011;14298;50.900;4.648;2023-03-08T06:16:14;1.60;;;1.60;;
26686;SDS011;14298;50.900;4.648;2023-03-08T06:18:43;7.77;;;2.50;;
26686;SDS011;14298;50.900;4.648;2023-03-08T06:21:12;3.80;;;3.50;;
26686;SDS011;14298;50.900;4.648;2023-03-08T06:23:45;2.53;;;2.43;;
26686;SDS011;14298;50.900;4.648;2023-03-08T06:26:14;2.37;;;2.27;;
26686;SDS011;14298;50.900;4.648;2023-03-08T06:28:43;2.60;;;2.50;;
26686;SDS011;14298;50.900;4.648;2023-03-08T06:31:12;3.20;;;3.00;;
26686;SDS011;14298;50.900;4.648;2023-03-08T06:33:41;4.03;;;3.70;;
26686;SDS011;14298;50.900;4.648;2023-03-08T06:36:11;2.77;;;2.57;;
26686;SDS011;14298;50.900;4.648;2023-03-08T06:38:44;2.60;;;2.50;;
26686;SDS011;14298;50.900;4.648;2023-03-08T06:41:14;2.67;;;2.57;;
26686;SDS011;14298;50.900;4.648;2023-03-08T06:43:44;2.90;;;2.77;;
26686;SDS011;14298;50.900;4.648;2023-03-08T06:46:13;3.97;;;3.67;;
26686;SDS011;14298;50.900;4.648;2023-03-08T06:48:43;2.90;;;2.80;;
26686;SDS011;14298;50.900;4.648;2023-03-08T06:51:13;3.73;;;3.43;;
26686;SDS011;14298;50.900;4.648;2023-03-08T06:53:42;3.17;;;2.93;;
26686;SDS011;14298;50.900;4.648;2023-03-08T06:56:12;3.73;;;3.43;;
26686;SDS011;14298;50.900;4.648;2023-03-08T06:58:42;2.37;;;2.27;;
26686;SDS011;14298;50.900;4.648;2023-03-08T07:01:10;2.47;;;2.27;;
26686;SDS011;14298;50.900;4.648;2023-03-08T07:03:40;6.17;;;3.63;;
26686;SDS011;14298;50.900;4.648;2023-03-08T07:06:10;2.43;;;2.33;;
26686;SDS011;14298;50.900;4.648;2023-03-08T07:08:38;2.27;;;2.10;;
26686;SDS011;14298;50.900;4.648;2023-03-08T07:11:07;2.60;;;2.50;;
26686;SDS011;14298;50.900;4.648;2023-03-08T07:13:37;6.53;;;3.30;;
26686;SDS011;14298;50.900;4.648;2023-03-08T07:16:09;2.67;;;2.53;;
26686;SDS011;14298;50.900;4.648;2023-03-08T07:18:40;3.70;;;2.83;;
26686;SDS011;14298;50.900;4.648;2023-03-08T07:21:08;2.77;;;2.57;;
26686;SDS011;14298;50.900;4.648;2023-03-08T07:23:37;2.37;;;2.20;;
26686;SDS011;14298;50.900;4.648;2023-03-08T07:26:06;3.03;;;2.83;;
26686;SDS011;14298;50.900;4.648;2023-03-08T07:28:35;3.80;;;3.50;;
26686;SDS011;14298;50.900;4.648;2023-03-08T07:31:04;3.03;;;2.83;;
26686;SDS011;14298;50.900;4.648;2023-03-08T07:33:32;4.67;;;2.87;;
26686;SDS011;14298;50.900;4.648;2023-03-08T07:36:00;2.63;;;2.43;;
26686;SDS011;14298;50.900;4.648;2023-03-08T07:38:29;1.87;;;1.87;;
26686;SDS011;14298;50.900;4.648;2023-03-08T07:40:57;2.80;;;2.70;;
26686;SDS011;14298;50.900;4.648;2023-03-08T07:43:26;2.67;;;2.57;;
26686;SDS011;14298;50.900;4.648;2023-03-08T07:45:54;3.57;;;3.30;;
26686;SDS011;14298;50.900;4.648;2023-03-08T07:48:28;2.67;;;2.47;;
26686;SDS011;14298;50.900;4.648;2023-03-08T07:51:01;2.90;;;2.70;;
26686;SDS011;14298;50.900;4.648;2023-03-08T07:53:32;3.37;;;3.17;;
26686;SDS011;14298;50.900;4.648;2023-03-08T07:56:03;2.53;;;2.33;;
26686;SDS011;14298;50.900;4.648;2023-03-08T07:58:32;2.80;;;2.53;;
26686;SDS011;14298;50.900;4.648;2023-03-08T08:01:01;3.63;;;3.33;;
26686;SDS011;14298;50.900;4.648;2023-03-08T08:03:34;2.73;;;2.60;;
26686;SDS011;14298;50.900;4.648;2023-03-08T08:06:04;2.43;;;2.33;;
26686;SDS011;14298;50.900;4.648;2023-03-08T08:08:33;3.00;;;2.90;;
26686;SDS011;14298;50.900;4.648;2023-03-08T08:11:08;5.17;;;4.03;;
26686;SDS011;14298;50.900;4.648;2023-03-08T08:13:39;3.57;;;3.30;;
26686;SDS011;14298;50.900;4.648;2023-03-08T08:16:08;1.87;;;1.87;;
26686;SDS011;14298;50.900;4.648;2023-03-08T08:18:36;2.00;;;1.90;;
26686;SDS011;14298;50.900;4.648;2023-03-08T08:21:09;2.80;;;2.70;;
26686;SDS011;14298;50.900;4.648;2023-03-08T08:23:41;2.03;;;1.93;;
26686;SDS011;14298;50.900;4.648;2023-03-08T08:26:12;2.87;;;2.67;;
26686;SDS011;14298;50.900;4.648;2023-03-08T08:31:30;2.23;;;2.10;;
26686;SDS011;14298;50.900;4.648;2023-03-08T08:33:59;1.40;;;1.40;;
26686;SDS011;14298;50.900;4.648;2023-03-08T08:36:28;2.60;;;2.40;;
26686;SDS011;14298;50.900;4.648;2023-03-08T08:38:57;2.33;;;2.13;;
26686;SDS011;14298;50.900;4.648;2023-03-08T08:41:25;2.40;;;2.20;;
26686;SDS011;14298;50.900;4.648;2023-03-08T08:43:55;2.07;;;2.03;;
26686;SDS011;14298;50.900;4.648;2023-03-08T08:46:26;1.90;;;1.80;;
26686;SDS011;14298;50.900;4.648;2023-03-08T08:48:54;2.63;;;2.53;;
26686;SDS011;14298;50.900;4.648;2023-03-08T08:51:24;2.13;;;2.03;;
26686;SDS011;14298;50.900;4.648;2023-03-08T08:53:53;3.50;;;3.20;;
26686;SDS011;14298;50.900;4.648;2023-03-08T08:56:27;2.33;;;2.23;;
26686;SDS011;14298;50.900;4.648;2023-03-08T08:58:52;2.57;;;2.47;;
26686;SDS011;14298;50.900;4.648;2023-03-08T09:01:23;2.50;;;2.40;;
26686;SDS011;14298;50.900;4.648;2023-03-08T09:03:54;3.07;;;2.87;;
26686;SDS011;14298;50.900;4.648;2023-03-08T09:06:22;2.53;;;2.37;;
26686;SDS011;14298;50.900;4.648;2023-03-08T09:08:53;3.43;;;3.13;;
26686;SDS011;14298;50.900;4.648;2023-03-08T09:11:23;2.50;;;2.40;;
26686;SDS011;14298;50.900;4.648;2023-03-08T09:13:53;2.30;;;2.17;;
26686;SDS011;14298;50.900;4.648;2023-03-08T09:16:23;2.83;;;2.70;;
26686;SDS011;14298;50.900;4.648;2023-03-08T09:18:53;2.83;;;2.70;;
26686;SDS011;14298;50.900;4.648;2023-03-08T09:21:23;2.47;;;2.27;;
26686;SDS011;14298;50.900;4.648;2023-03-08T09:23:53;2.80;;;2.70;;
26686;SDS011;14298;50.900;4.648;2023-03-08T09:26:22;2.83;;;2.63;;
26686;SDS011;14298;50.900;4.648;2023-03-08T09:28:50;4.07;;;2.93;;
26686;SDS011;14298;50.900;4.648;2023-03-08T09:31:18;1.57;;;1.50;;
26686;SDS011;14298;50.900;4.648;2023-03-08T09:33:50;1.60;;;1.60;;
26686;SDS011;14298;50.900;4.648;2023-03-08T09:36:18;2.43;;;2.27;;
26686;SDS011;14298;50.900;4.648;2023-03-08T09:38:47;1.70;;;1.70;;
26686;SDS011;14298;50.900;4.648;2023-03-08T09:47:12;2.63;;;2.47;;
26686;SDS011;14298;50.900;4.648;2023-03-08T09:49:43;2.90;;;2.63;;
26686;SDS011;14298;50.900;4.648;2023-03-08T09:52:34;2.27;;;2.10;;
26686;SDS011;14298;50.900;4.648;2023-03-08T09:55:02;6.03;;;3.80;;
26686;SDS011;14298;50.900;4.648;2023-03-08T09:57:35;3.00;;;2.63;;
26686;SDS011;14298;50.900;4.648;2023-03-08T10:00:09;3.50;;;2.67;;
26686;SDS011;14298;50.900;4.648;2023-03-08T10:08:22;2.27;;;2.07;;
26686;SDS011;14298;50.900;4.648;2023-03-08T10:10:55;3.17;;;2.97;;
26686;SDS011;14298;50.900;4.648;2023-03-08T10:13:28;4.37;;;3.40;;
26686;SDS011;14298;50.900;4.648;2023-03-08T10:21:25;2.33;;;2.23;;
26686;SDS011;14298;50.900;4.648;2023-03-08T10:23:58;3.00;;;2.80;;
26686;SDS011;14298;50.900;4.648;2023-03-08T10:26:29;3.40;;;3.17;;
26686;SDS011;14298;50.900;4.648;2023-03-08T10:28:58;3.00;;;2.80;;
26686;SDS011;14298;50.900;4.648;2023-03-08T10:31:27;3.20;;;3.00;;
26686;SDS011;14298;50.900;4.648;2023-03-08T10:34:05;5.33;;;4.83;;
26686;SDS011;14298;50.900;4.648;2023-03-08T10:36:46;3.77;;;3.53;;
26686;SDS011;14298;50.900;4.648;2023-03-08T10:39:19;3.43;;;3.17;;
26686;SDS011;14298;50.900;4.648;2023-03-08T10:41:49;3.33;;;3.13;;
26686;SDS011;14298;50.900;4.648;2023-03-08T10:44:28;3.97;;;3.57;;
26686;SDS011;14298;50.900;4.648;2023-03-08T10:52:38;2.53;;;2.43;;
26686;SDS011;14298;50.900;4.648;2023-03-08T10:55:18;3.00;;;2.77;;
26686;SDS011;14298;50.900;4.648;2023-03-08T10:57:49;3.80;;;3.40;;
26686;SDS011;14298;50.900;4.648;2023-03-08T11:00:24;2.87;;;2.67;;
26686;SDS011;14298;50.900;4.648;2023-03-08T11:03:02;2.93;;;2.73;;
26686;SDS011;14298;50.900;4.648;2023-03-08T11:05:32;3.97;;;3.67;;
26686;SDS011;14298;50.900;4.648;2023-03-08T11:08:00;3.87;;;3.57;;
26686;SDS011;14298;50.900;4.648;2023-03-08T11:10:29;2.53;;;2.43;;
26686;SDS011;14298;50.900;4.648;2023-03-08T11:13:01;3.23;;;3.03;;
26686;SDS011;14298;50.900;4.648;2023-03-08T11:15:31;3.03;;;2.83;;
26686;SDS011;14298;50.900;4.648;2023-03-08T11:20:54;4.53;;;4.23;;
26686;SDS011;14298;50.900;4.648;2023-03-08T11:23:29;8.17;;;4.83;;
26686;SDS011;14298;50.900;4.648;2023-03-08T11:26:33;5.37;;;3.73;;
26686;SDS011;14298;50.900;4.648;2023-03-08T11:28:54;3.50;;;3.30;;
26686;SDS011;14298;50.900;4.648;2023-03-08T11:31:27;4.80;;;4.40;;
26686;SDS011;14298;50.900;4.648;2023-03-08T11:42:11;3.87;;;3.47;;
26686;SDS011;14298;50.900;4.648;2023-03-08T11:44:46;5.77;;;5.20;;
26686;SDS011;14298;50.900;4.648;2023-03-08T11:50:25;5.57;;;5.07;;
26686;SDS011;14298;50.900;4.648;2023-03-08T11:53:28;4.40;;;4.00;;
26686;SDS011;14298;50.900;4.648;2023-03-08T11:56:23;4.03;;;3.73;;
26686;SDS011;14298;50.900;4.648;2023-03-08T11:59:09;4.13;;;3.57;;
26686;SDS011;14298;50.900;4.648;2023-03-08T12:01:42;2.90;;;2.70;;
26686;SDS011;14298;50.900;4.648;2023-03-08T12:04:12;5.30;;;4.43;;
26686;SDS011;14298;50.900;4.648;2023-03-08T12:06:48;4.60;;;4.13;;
26686;SDS011;14298;50.900;4.648;2023-03-08T12:12:10;3.30;;;3.07;;
26686;SDS011;14298;50.900;4.648;2023-03-08T12:14:50;4.70;;;4.17;;
26686;SDS011;14298;50.900;4.648;2023-03-08T12:17:37;4.37;;;3.97;;
26686;SDS011;14298;50.900;4.648;2023-03-08T12:20:13;3.37;;;3.17;;
26686;SDS011;14298;50.900;4.648;2023-03-08T12:22:46;4.83;;;4.43;;
26686;SDS011;14298;50.900;4.648;2023-03-08T12:25:21;5.13;;;4.37;;
26686;SDS011;14298;50.900;4.648;2023-03-08T12:27:52;6.37;;;5.07;;
26686;SDS011;14298;50.900;4.648;2023-03-08T12:33:12;5.03;;;4.63;;
26686;SDS011;14298;50.900;4.648;2023-03-08T12:35:56;4.83;;;4.43;;
26686;SDS011;14298;50.900;4.648;2023-03-08T12:38:33;4.10;;;3.80;;
26686;SDS011;14298;50.900;4.648;2023-03-08T12:41:04;3.10;;;2.73;;
26686;SDS011;14298;50.900;4.648;2023-03-08T12:43:34;5.97;;;5.37;;
26686;SDS011;14298;50.900;4.648;2023-03-08T12:46:05;3.40;;;3.13;;
26686;SDS011;14298;50.900;4.648;2023-03-08T12:51:31;4.60;;;4.30;;
26686;SDS011;14298;50.900;4.648;2023-03-08T12:54:00;5.27;;;4.83;;
26686;SDS011;14298;50.900;4.648;2023-03-08T12:56:31;6.43;;;4.57;;
26686;SDS011;14298;50.900;4.648;2023-03-08T13:01:46;4.03;;;3.20;;
26686;SDS011;14298;50.900;4.648;2023-03-08T13:04:27;5.27;;;3.57;;
26686;SDS011;14298;50.900;4.648;2023-03-08T13:09:49;4.83;;;4.53;;
26686;SDS011;14298;50.900;4.648;2023-03-08T13:12:22;3.27;;;2.97;;
26686;SDS011;14298;50.900;4.648;2023-03-08T13:15:18;3.97;;;3.63;;
26686;SDS011;14298;50.900;4.648;2023-03-08T13:17:51;3.03;;;2.80;;
26686;SDS011;14298;50.900;4.648;2023-03-08T13:20:23;4.30;;;3.90;;
26686;SDS011;14298;50.900;4.648;2023-03-08T13:28:26;5.47;;;4.57;;
26686;SDS011;14298;50.900;4.648;2023-03-08T13:31:00;4.50;;;3.77;;
26686;SDS011;14298;50.900;4.648;2023-03-08T13:33:32;5.40;;;4.07;;
26686;SDS011;14298;50.900;4.648;2023-03-08T13:36:03;6.77;;;4.50;;
26686;SDS011;14298;50.900;4.648;2023-03-08T13:38:36;4.67;;;4.23;;
26686;SDS011;14298;50.900;4.648;2023-03-08T13:41:05;4.10;;;3.80;;
26686;SDS011;14298;50.900;4.648;2023-03-08T13:43:33;6.83;;;3.77;;
26686;SDS011;14298;50.900;4.648;2023-03-08T13:46:03;4.67;;;3.77;;
26686;SDS011;14298;50.900;4.648;2023-03-08T13:48:34;4.60;;;4.20;;
26686;SDS011;14298;50.900;4.648;2023-03-08T13:51:03;4.33;;;4.03;;
26686;SDS011;14298;50.900;4.648;2023-03-08T13:53:33;6.17;;;5.67;;
26686;SDS011;14298;50.900;4.648;2023-03-08T13:56:03;6.10;;;3.73;;
26686;SDS011;14298;50.900;4.648;2023-03-08T13:58:36;5.70;;;5.27;;
26686;SDS011;14298;50.900;4.648;2023-03-08T14:01:13;5.27;;;4.73;;
26686;SDS011;14298;50.900;4.648;2023-03-08T14:06:46;4.17;;;3.87;;
26686;SDS011;14298;50.900;4.648;2023-03-08T14:09:12;4.83;;;4.40;;
26686;SDS011;14298;50.900;4.648;2023-03-08T14:11:41;4.67;;;4.17;;
26686;SDS011;14298;50.900;4.648;2023-03-08T14:14:14;9.83;;;5.00;;
26686;SDS011;14298;50.900;4.648;2023-03-08T14:16:54;6.10;;;5.50;;
26686;SDS011;14298;50.900;4.648;2023-03-08T14:19:29;3.73;;;3.43;;
26686;SDS011;14298;50.900;4.648;2023-03-08T14:22:01;3.40;;;3.20;;
26686;SDS011;14298;50.900;4.648;2023-03-08T14:24:32;4.87;;;4.47;;
26686;SDS011;14298;50.900;4.648;2023-03-08T14:27:03;5.57;;;4.23;;
26686;SDS011;14298;50.900;4.648;2023-03-08T14:29:34;5.37;;;4.87;;
26686;SDS011;14298;50.900;4.648;2023-03-08T14:32:04;5.27;;;4.80;;
26686;SDS011;14298;50.900;4.648;2023-03-08T14:34:40;4.57;;;4.23;;
26686;SDS011;14298;50.900;4.648;2023-03-08T14:39:50;5.13;;;4.73;;
26686;SDS011;14298;50.900;4.648;2023-03-08T14:42:28;5.67;;;5.17;;
26686;SDS011;14298;50.900;4.648;2023-03-08T14:45:02;6.80;;;5.53;;
26686;SDS011;14298;50.900;4.648;2023-03-08T14:47:33;6.37;;;5.77;;
26686;SDS011;14298;50.900;4.648;2023-03-08T14:50:03;5.83;;;5.23;;
26686;SDS011;14298;50.900;4.648;2023-03-08T14:52:43;5.77;;;5.27;;
26686;SDS011;14298;50.900;4.648;2023-03-08T14:55:24;4.33;;;3.93;;
26686;SDS011;14298;50.900;4.648;2023-03-08T14:57:58;5.80;;;5.30;;
26686;SDS011;14298;50.900;4.648;2023-03-08T15:00:32;4.57;;;4.27;;
26686;SDS011;14298;50.900;4.648;2023-03-08T15:03:00;6.50;;;5.90;;
26686;SDS011;14298;50.900;4.648;2023-03-08T15:05:29;9.60;;;6.60;;
26686;SDS011;14298;50.900;4.648;2023-03-08T15:07:57;8.03;;;5.13;;
26686;SDS011;14298;50.900;4.648;2023-03-08T15:10:30;5.50;;;5.00;;
26686;SDS011;14298;50.900;4.648;2023-03-08T15:13:03;7.33;;;5.43;;
26686;SDS011;14298;50.900;4.648;2023-03-08T15:15:33;5.87;;;5.33;;
26686;SDS011;14298;50.900;4.648;2023-03-08T15:18:03;6.80;;;6.20;;
26686;SDS011;14298;50.900;4.648;2023-03-08T15:20:32;8.97;;;6.90;;
26686;SDS011;14298;50.900;4.648;2023-03-08T15:23:03;8.77;;;6.00;;
26686;SDS011;14298;50.900;4.648;2023-03-08T15:25:35;9.87;;;7.13;;
26686;SDS011;14298;50.900;4.648;2023-03-08T15:28:04;7.03;;;6.53;;
26686;SDS011;14298;50.900;4.648;2023-03-08T15:30:33;8.43;;;5.63;;
26686;SDS011;14298;50.900;4.648;2023-03-08T15:33:01;4.97;;;4.57;;
26686;SDS011;14298;50.900;4.648;2023-03-08T15:35:29;4.37;;;3.97;;
26686;SDS011;14298;50.900;4.648;2023-03-08T15:37:58;9.83;;;6.27;;
26686;SDS011;14298;50.900;4.648;2023-03-08T15:40:27;8.10;;;6.33;;
26686;SDS011;14298;50.900;4.648;2023-03-08T15:42:56;4.37;;;4.03;;
26686;SDS011;14298;50.900;4.648;2023-03-08T15:45:26;7.50;;;6.20;;
26686;SDS011;14298;50.900;4.648;2023-03-08T15:48:04;6.10;;;4.20;;
26686;SDS011;14298;50.900;4.648;2023-03-08T15:50:34;5.07;;;4.57;;
26686;SDS011;14298;50.900;4.648;2023-03-08T15:53:03;4.80;;;4.20;;
26686;SDS011;14298;50.900;4.648;2023-03-08T15:55:31;5.77;;;4.87;;
26686;SDS011;14298;50.900;4.648;2023-03-08T15:58:00;4.93;;;4.50;;
26686;SDS011;14298;50.900;4.648;2023-03-08T16:00:28;11.40;;;4.33;;
26686;SDS011;14298;50.900;4.648;2023-03-08T16:02:57;4.20;;;3.87;;
26686;SDS011;14298;50.900;4.648;2023-03-08T16:05:25;6.30;;;5.00;;
26686;SDS011;14298;50.900;4.648;2023-03-08T16:07:55;6.10;;;5.60;;
26686;SDS011;14298;50.900;4.648;2023-03-08T16:10:25;6.00;;;5.33;;
26686;SDS011;14298;50.900;4.648;2023-03-08T16:12:55;3.87;;;3.67;;
26686;SDS011;14298;50.900;4.648;2023-03-08T16:15:24;4.00;;;3.73;;
26686;SDS011;14298;50.900;4.648;2023-03-08T16:17:52;4.47;;;4.03;;
26686;SDS011;14298;50.900;4.648;2023-03-08T16:20:21;5.93;;;5.27;;
26686;SDS011;14298;50.900;4.648;2023-03-08T16:22:50;4.13;;;3.37;;
26686;SDS011;14298;50.900;4.648;2023-03-08T16:25:20;5.60;;;5.03;;
26686;SDS011;14298;50.900;4.648;2023-03-08T16:27:48;6.23;;;5.63;;
26686;SDS011;14298;50.900;4.648;2023-03-08T16:30:18;5.93;;;4.90;;